Time;durP1;ratioP1;P1;durP2;ratioP2;P2;SDS_P1;SDS_P2;PMS_P1;PMS_P2;Temp;Humidity;BMP_temperature;BMP_pressure;BME280_temperature;BME280_humidity;BME280_pressure;Samples;Min_cycle;Max_cycle;Signal;HPM_P1;HPM_P2
2022/08/06 00:01:32;;;;;;;2.17;2.07;;;24.50;44.30;;;;;;20855;6754;117279;-87
2022/08/06 00:04:19;;;;;;;2.50;2.40;;;24.40;44.60;;;;;;20726;6729;300659;-87
2022/08/06 00:06:46;;;;;;;2.85;2.62;;;24.70;43.70;;;;;;20631;6729;306626;-87
2022/08/06 00:09:23;;;;;;;2.30;2.20;;;25.10;42.60;;;;;;20733;6724;305250;-87
2022/08/06 00:11:59;;;;;;;2.40;2.30;;;25.40;41.90;;;;;;20791;6712;314305;-87
2022/08/06 00:14:34;;;;;;;2.23;2.13;;;25.70;41.60;;;;;;20781;6712;275686;-87
2022/08/06 00:17:10;;;;;;;2.20;2.10;;;25.80;41.20;;;;;;20853;6712;117211;-87
2022/08/06 00:19:46;;;;;;;2.40;2.20;;;25.60;41.70;;;;;;20985;6718;120718;-87
2022/08/06 00:22:23;;;;;;;2.47;2.28;;;25.20;42.20;;;;;;20720;6732;304581;-87
2022/08/06 00:24:59;;;;;;;2.17;2.07;;;25.30;41.60;;;;;;20942;6727;115863;-87
2022/08/06 00:27:37;;;;;;;2.43;2.33;;;25.10;41.90;;;;;;20544;6788;277861;-87
2022/08/06 00:30:14;;;;;;;2.23;2.10;;;25.20;41.50;;;;;;20964;6727;116835;-87
2022/08/06 00:32:49;;;;;;;2.30;2.10;;;25.10;42.20;;;;;;20754;6727;275418;-87
2022/08/06 00:35:31;;;;;;;2.73;1.90;;;25.20;41.10;;;;;;20860;6741;118931;-87
2022/08/06 00:38:02;;;;;;;2.37;2.27;;;25.10;41.80;;;;;;20973;6727;116736;-87
2022/08/06 00:40:37;;;;;;;1.60;1.60;;;24.80;42.30;;;;;;21014;6712;117096;-87
2022/08/06 00:43:17;;;;;;;2.60;2.50;;;24.70;41.80;;;;;;20763;6712;276959;-87
2022/08/06 00:45:50;;;;;;;2.30;2.20;;;24.60;41.60;;;;;;20745;6712;278239;-87
2022/08/06 00:48:27;;;;;;;2.30;2.20;;;24.70;41.80;;;;;;20961;6727;117335;-87
2022/08/06 00:51:02;;;;;;;1.97;1.90;;;24.70;41.80;;;;;;20967;6727;117579;-87
2022/08/06 00:53:38;;;;;;;2.43;2.33;;;24.30;42.70;;;;;;20718;6727;275937;-87
2022/08/06 00:56:17;;;;;;;2.40;2.20;;;24.50;41.40;;;;;;20564;6761;297632;-87
2022/08/06 00:58:50;;;;;;;2.00;1.90;;;24.80;40.30;;;;;;20665;6752;277695;-87
2022/08/06 01:01:26;;;;;;;2.40;2.20;;;25.00;38.80;;;;;;20697;6738;292763;-87
2022/08/06 01:04:03;;;;;;;3.63;1.87;;;25.10;38.40;;;;;;20870;6739;120983;-87
2022/08/06 01:06:38;;;;;;;2.03;1.90;;;24.80;39.20;;;;;;20629;6720;335715;-87
2022/08/06 01:09:14;;;;;;;2.10;2.00;;;24.70;38.70;;;;;;20692;6720;281634;-87
2022/08/06 01:11:52;;;;;;;1.90;1.80;;;24.90;38.40;;;;;;20706;6724;306484;-87
2022/08/06 01:14:25;;;;;;;2.75;2.10;;;25.10;39.00;;;;;;20723;6720;276450;-87
2022/08/06 01:17:04;;;;;;;2.30;2.10;;;25.20;38.00;;;;;;20659;6705;306917;-87
2022/08/06 01:19:46;;;;;;;2.70;2.20;;;25.30;38.20;;;;;;20739;6705;334296;-87
2022/08/06 01:22:28;;;;;;;1.87;1.77;;;25.30;37.70;;;;;;20886;6736;116953;-87
2022/08/06 01:25:27;;;;;;;2.20;2.00;;;25.00;38.60;;;;;;20683;6750;306022;-87
2022/08/06 01:28:09;;;;;;;2.30;2.20;;;24.80;38.60;;;;;;20670;6739;307021;-87
2022/08/06 01:30:45;;;;;;;2.83;1.90;;;24.80;39.80;;;;;;20931;6724;116634;-87
2022/08/06 01:33:20;;;;;;;2.13;1.93;;;24.80;39.70;;;;;;20916;6724;120671;-87
2022/08/06 01:35:56;;;;;;;2.13;2.03;;;24.40;40.50;;;;;;20861;6724;117689;-87
2022/08/06 01:38:34;;;;;;;2.30;2.20;;;24.20;41.20;;;;;;20755;6709;306126;-87
2022/08/06 01:41:12;;;;;;;2.65;2.37;;;24.40;40.80;;;;;;20746;6701;275554;-87
2022/08/06 01:43:49;;;;;;;2.10;2.00;;;24.70;40.50;;;;;;20783;6701;307510;-87
2022/08/06 01:46:24;;;;;;;2.77;2.20;;;24.90;40.20;;;;;;20904;6701;118475;-87
2022/08/06 01:49:00;;;;;;;2.10;1.97;;;24.70;40.50;;;;;;20987;6701;117955;-86
2022/08/06 01:51:35;;;;;;;2.30;1.97;;;24.10;41.50;;;;;;20991;6701;120259;-88
2022/08/06 01:54:11;;;;;;;2.30;2.20;;;23.40;42.70;;;;;;20993;6716;118015;-86
2022/08/06 01:56:47;;;;;;;2.27;2.17;;;22.90;45.60;;;;;;20515;6761;307731;-86
2022/08/06 01:59:23;;;;;;;2.50;2.30;;;22.80;45.80;;;;;;20685;6724;305690;-86
2022/08/06 02:01:58;;;;;;;1.90;1.80;;;23.20;44.50;;;;;;20937;6716;116724;-86
2022/08/06 02:04:34;;;;;;;2.03;1.83;;;23.00;44.20;;;;;;20712;6713;305139;-86
2022/08/06 02:07:10;;;;;;;2.00;1.90;;;23.30;42.80;;;;;;20628;6713;307353;-86
2022/08/06 02:09:46;;;;;;;1.80;1.70;;;23.20;42.70;;;;;;20933;6722;116880;-86
2022/08/06 02:12:21;;;;;;;3.10;1.93;;;23.00;43.20;;;;;;20945;6722;67223;-86
2022/08/06 02:14:57;;;;;;;1.57;1.50;;;22.70;44.00;;;;;;20931;6722;119576;-86
2022/08/06 02:17:33;;;;;;;2.07;1.83;;;22.50;44.30;;;;;;20691;6787;117759;-86
2022/08/06 02:20:08;;;;;;;1.70;1.60;;;22.40;44.10;;;;;;21028;6716;118187;-88
2022/08/06 02:22:44;;;;;;;1.50;1.50;;;22.20;44.10;;;;;;20911;6731;117310;-86
2022/08/06 02:25:19;;;;;;;1.93;1.83;;;22.10;44.20;;;;;;20720;6713;277880;-85
2022/08/06 02:27:56;;;;;;;3.15;1.67;;;22.50;43.40;;;;;;20724;6716;305169;-86
2022/08/06 02:30:35;;;;;;;2.87;1.83;;;22.90;42.00;;;;;;20745;6711;278990;-86
2022/08/06 02:33:10;;;;;;;1.80;1.70;;;23.20;41.20;;;;;;20742;6712;304798;-86
2022/08/06 02:35:49;;;;;;;1.70;1.60;;;23.40;40.80;;;;;;20680;6712;307045;-87
2022/08/06 02:38:24;;;;;;;2.50;1.50;;;23.60;40.00;;;;;;20908;6716;116791;-86
2022/08/06 02:41:11;;;;;;;1.93;1.80;;;23.00;41.80;;;;;;20926;6716;120752;-86
2022/08/06 02:43:53;;;;;;;2.00;1.80;;;23.00;41.80;;;;;;20957;6716;117239;-87
2022/08/06 02:46:28;;;;;;;1.85;1.60;;;22.70;42.10;;;;;;20652;6701;310192;-86
2022/08/06 02:49:07;;;;;;;1.63;1.53;;;22.90;41.10;;;;;;20965;6709;117095;-87
2022/08/06 02:51:46;;;;;;;1.90;1.80;;;22.90;41.20;;;;;;20906;6709;116973;-90
2022/08/06 02:54:28;;;;;;;1.87;1.57;;;22.70;42.00;;;;;;20903;6731;121288;-86
2022/08/06 02:57:05;;;;;;;1.87;1.70;;;22.60;42.30;;;;;;20750;6743;118129;-86
2022/08/06 02:59:40;;;;;;;1.63;1.53;;;22.50;42.80;;;;;;20871;6736;120742;-87
2022/08/06 03:02:17;;;;;;;2.53;1.43;;;22.40;43.30;;;;;;20931;6722;116938;-87
2022/08/06 03:04:52;;;;;;;2.10;1.50;;;22.40;43.40;;;;;;20725;6722;305056;-86
2022/08/06 03:07:30;;;;;;;1.85;1.75;;;23.20;39.90;;;;;;20483;6793;338149;-86
2022/08/06 03:10:06;;;;;;;2.50;1.70;;;23.20;39.90;;;;;;20738;6726;276224;-87
2022/08/06 03:12:42;;;;;;;1.83;1.60;;;23.50;39.80;;;;;;20641;6741;281971;-86
2022/08/06 03:15:17;;;;;;;3.47;1.57;;;23.70;39.60;;;;;;20878;6726;117737;-87
2022/08/06 03:17:58;;;;;;;1.50;1.40;;;23.50;40.10;;;;;;20692;6726;305517;-87
2022/08/06 03:20:30;;;;;;;2.33;1.20;;;23.50;39.10;;;;;;20898;6731;117551;-86
2022/08/06 03:23:06;;;;;;;1.65;1.50;;;23.30;39.80;;;;;;20601;6761;308012;-87
2022/08/06 03:25:41;;;;;;;1.60;1.50;;;23.40;39.20;;;;;;20937;6727;117045;-89
2022/08/06 03:28:17;;;;;;;1.97;1.67;;;23.20;39.80;;;;;;20924;6727;116920;-86
2022/08/06 03:30:52;;;;;;;1.67;1.50;;;22.80;40.70;;;;;;20918;6727;117380;-87
2022/08/06 03:33:28;;;;;;;2.47;1.87;;;22.60;41.40;;;;;;20909;6727;117201;-86
2022/08/06 03:36:03;;;;;;;1.87;1.33;;;22.40;41.80;;;;;;20844;6727;122193;-87
2022/08/06 03:38:39;;;;;;;1.67;1.57;;;22.30;42.00;;;;;;20692;6726;306732;-87
2022/08/06 03:41:15;;;;;;;2.23;1.60;;;22.60;41.40;;;;;;20809;6741;126765;-90
2022/08/06 03:43:50;;;;;;;2.60;1.57;;;22.60;41.60;;;;;;20794;6727;304119;-87
2022/08/06 03:46:49;;;;;;;1.30;1.30;;;23.00;40.30;;;;;;20860;6731;116177;-87
2022/08/06 03:49:27;;;;;;;1.70;1.47;;;23.00;40.80;;;;;;20960;6731;116219;-89
2022/08/06 03:52:03;;;;;;;2.20;1.50;;;22.70;41.40;;;;;;21031;6716;117446;-87
2022/08/06 03:54:38;;;;;;;1.53;1.43;;;22.50;41.80;;;;;;20990;6716;116936;-89
2022/08/06 03:57:14;;;;;;;1.80;1.30;;;22.40;42.20;;;;;;20807;6716;117660;-87
2022/08/06 03:59:51;;;;;;;2.73;1.37;;;22.30;42.30;;;;;;20891;6741;117750;-89
2022/08/06 04:02:28;;;;;;;1.77;1.67;;;22.30;42.60;;;;;;20768;6719;278441;-88
2022/08/06 04:05:06;;;;;;;1.50;1.40;;;22.60;40.80;;;;;;20724;6719;276125;-86
2022/08/06 04:07:42;;;;;;;1.58;1.48;;;23.00;40.70;;;;;;20721;6734;305266;-86
2022/08/06 04:10:17;;;;;;;1.80;1.60;;;23.40;40.20;;;;;;20631;6747;320017;-86
2022/08/06 04:12:53;;;;;;;1.80;1.67;;;23.60;39.40;;;;;;20969;6712;116717;-86
2022/08/06 04:15:38;;;;;;;3.40;1.63;;;23.50;40.00;;;;;;20702;6709;306497;-86
2022/08/06 04:18:04;;;;;;;1.73;1.62;;;23.50;39.40;;;;;;20736;6716;304626;-86
2022/08/06 04:20:40;;;;;;;1.73;1.63;;;23.70;39.80;;;;;;20732;6716;304998;-86
2022/08/06 04:23:25;;;;;;;3.20;1.70;;;23.90;39.10;;;;;;20744;6716;287594;-88
2022/08/06 04:25:54;;;;;;;1.80;1.50;;;24.00;38.60;;;;;;20715;6736;306981;-88
2022/08/06 04:28:31;;;;;;;1.60;1.50;;;24.10;38.60;;;;;;20721;6720;300623;-87
2022/08/06 04:31:07;;;;;;;1.73;1.63;;;24.10;38.60;;;;;;20891;6780;117034;-86
2022/08/06 04:33:43;;;;;;;1.57;1.37;;;23.70;39.30;;;;;;20916;6790;117102;-89
2022/08/06 04:36:18;;;;;;;1.73;1.63;;;23.20;40.10;;;;;;20593;6734;306369;-87
2022/08/06 04:38:54;;;;;;;1.70;1.55;;;23.30;40.20;;;;;;20770;6705;312448;-87
2022/08/06 04:41:29;;;;;;;2.83;1.43;;;23.50;39.60;;;;;;20821;6780;142475;-89
2022/08/06 04:44:06;;;;;;;3.70;1.60;;;22.90;40.90;;;;;;20871;6735;117411;-86
2022/08/06 04:46:43;;;;;;;2.23;1.70;;;22.90;40.80;;;;;;20818;6727;118457;-86
2022/08/06 04:49:17;;;;;;;1.67;1.57;;;22.70;41.60;;;;;;20690;6720;310292;-87
2022/08/06 04:51:52;;;;;;;1.95;1.62;;;22.80;40.80;;;;;;20666;6738;336560;-88
2022/08/06 04:54:32;;;;;;;1.60;1.50;;;23.20;40.30;;;;;;20753;6724;305714;-86
2022/08/06 04:57:08;;;;;;;2.50;1.70;;;23.40;39.80;;;;;;20817;6709;117364;-86
2022/08/06 04:59:43;;;;;;;1.77;1.50;;;23.20;40.50;;;;;;20844;6753;117119;-88
2022/08/06 05:02:19;;;;;;;1.70;1.60;;;22.90;41.30;;;;;;20637;6749;306877;-86
2022/08/06 05:04:57;;;;;;;1.53;1.43;;;23.10;41.20;;;;;;20886;6735;117513;-86
2022/08/06 05:07:33;;;;;;;2.47;1.60;;;23.00;41.30;;;;;;20679;6733;281197;-86
2022/08/06 05:10:14;;;;;;;1.70;1.60;;;23.20;40.40;;;;;;20939;6731;115801;-89
2022/08/06 05:12:44;;;;;;;3.80;1.70;;;23.10;40.90;;;;;;20979;6716;67640;-87
2022/08/06 05:15:19;;;;;;;2.73;1.70;;;22.90;41.60;;;;;;20904;6721;116888;-85
2022/08/06 05:17:56;;;;;;;1.70;1.60;;;22.70;42.00;;;;;;20631;6747;310587;-87
2022/08/06 05:20:31;;;;;;;1.80;1.70;;;23.00;41.10;;;;;;20670;6749;307055;-87
2022/08/06 05:23:06;;;;;;;1.70;1.50;;;23.50;40.80;;;;;;20676;6749;310316;-85
2022/08/06 05:25:42;;;;;;;2.35;1.77;;;23.80;39.90;;;;;;20628;6749;337601;-87
2022/08/06 05:28:22;;;;;;;2.80;1.90;;;24.00;40.10;;;;;;20598;6760;276794;-87
2022/08/06 05:30:55;;;;;;;2.60;1.90;;;24.20;39.60;;;;;;20647;6745;305754;-86
2022/08/06 05:33:36;;;;;;;2.63;1.60;;;24.40;39.90;;;;;;20776;6745;119677;-86
2022/08/06 05:36:09;;;;;;;1.93;1.63;;;24.10;40.10;;;;;;20804;6745;117474;-86
2022/08/06 05:38:46;;;;;;;3.87;2.00;;;23.70;40.70;;;;;;20907;6734;117985;-87
2022/08/06 05:41:21;;;;;;;2.00;1.70;;;23.50;41.00;;;;;;20869;6737;117854;-87
2022/08/06 05:44:00;;;;;;;2.77;1.60;;;23.20;41.40;;;;;;20725;6722;279844;-87
2022/08/06 05:46:36;;;;;;;1.85;1.75;;;23.50;40.90;;;;;;20642;6719;336850;-86
2022/08/06 05:49:21;;;;;;;5.90;5.50;;;23.80;40.20;;;;;;20750;6709;305950;-86
2022/08/06 05:52:00;;;;;;;1.80;1.70;;;24.40;39.50;;;;;;20761;6719;275894;-85
2022/08/06 05:54:42;;;;;;;1.90;1.80;;;24.30;39.40;;;;;;20900;6775;116002;-85
2022/08/06 05:57:18;;;;;;;2.30;1.67;;;24.00;39.70;;;;;;20717;6734;147756;-87
2022/08/06 05:59:56;;;;;;;1.83;1.70;;;23.60;40.40;;;;;;20971;6704;116845;-87
2022/08/06 06:02:41;;;;;;;2.97;1.70;;;23.40;41.10;;;;;;20969;6713;117874;-87
2022/08/06 06:05:08;;;;;;;2.73;1.80;;;23.10;42.00;;;;;;20730;6704;305137;-87
2022/08/06 06:07:44;;;;;;;4.25;2.20;;;23.60;40.50;;;;;;20774;6704;305053;-88
2022/08/06 06:10:19;;;;;;;2.30;2.10;;;23.60;40.50;;;;;;20831;6792;117693;-90
2022/08/06 06:12:56;;;;;;;1.87;1.77;;;23.50;40.70;;;;;;20911;6735;120837;-90
2022/08/06 06:15:32;;;;;;;4.37;2.30;;;23.20;41.40;;;;;;20908;6786;117104;-90
2022/08/06 06:18:30;;;;;;;1.83;1.73;;;23.10;41.80;;;;;;20978;6718;117203;-90
2022/08/06 06:21:18;;;;;;;2.40;2.10;;;22.90;42.00;;;;;;20719;6771;306197;-88
2022/08/06 06:23:53;;;;;;;1.53;1.50;;;23.30;40.90;;;;;;20970;6718;119206;-85
2022/08/06 06:26:41;;;;;;;2.30;2.10;;;23.20;41.20;;;;;;20374;6789;308357;-87
2022/08/06 06:29:17;;;;;;;1.80;1.60;;;23.40;41.00;;;;;;20888;6730;128698;-87
2022/08/06 06:32:02;;;;;;;2.00;1.90;;;23.30;41.30;;;;;;20954;6715;117111;-87
2022/08/06 06:34:46;;;;;;;1.90;1.80;;;23.20;41.50;;;;;;20966;6715;116802;-87
2022/08/06 06:37:27;;;;;;;2.10;1.90;;;23.00;41.50;;;;;;20837;6715;122095;-88
2022/08/06 06:40:05;;;;;;;2.00;1.90;;;22.90;41.80;;;;;;20962;6715;116879;-88
2022/08/06 06:42:44;;;;;;;2.60;1.90;;;22.70;42.00;;;;;;20966;6715;116704;-88
2022/08/06 06:45:30;;;;;;;2.20;1.90;;;22.70;42.30;;;;;;20971;6715;117467;-91
2022/08/06 06:48:12;;;;;;;2.20;2.00;;;22.70;42.40;;;;;;20954;6715;117209;-90
2022/08/06 06:50:49;;;;;;;3.77;1.90;;;22.70;42.30;;;;;;20962;6715;116755;-91
2022/08/06 06:53:24;;;;;;;2.23;2.13;;;22.70;42.40;;;;;;20859;6733;117307;-89
2022/08/06 06:56:00;;;;;;;2.40;1.83;;;22.70;42.60;;;;;;20598;6790;279329;-90
2022/08/06 06:58:39;;;;;;;3.72;1.60;;;23.20;42.50;;;;;;20834;6718;288252;-87
2022/08/06 07:01:14;;;;;;;2.20;2.00;;;23.90;41.70;;;;;;20736;6606;279528;-90
2022/08/06 07:03:50;;;;;;;2.00;1.90;;;24.50;40.50;;;;;;20655;6801;277362;-89
2022/08/06 07:06:26;;;;;;;2.50;2.10;;;25.00;39.00;;;;;;20887;6749;117045;-90
2022/08/06 07:09:01;;;;;;;1.97;1.87;;;25.00;39.20;;;;;;20716;6729;303311;-90
2022/08/06 07:11:47;;;;;;;;;;;;;;;;;;;;;
2022/08/06 15:29:51;;;;;;;3.20;1.80;;;30.10;28.20;;;;;;21223;6578;306430;-85
2022/08/06 15:32:17;;;;;;;2.30;1.70;;;29.90;28.10;;;;;;20811;6799;117157;-85
2022/08/06 15:34:42;;;;;;;2.37;2.03;;;29.60;28.50;;;;;;20565;6829;280690;-87
2022/08/06 15:37:08;;;;;;;2.37;2.13;;;29.50;29.20;;;;;;20801;6829;117461;-85
2022/08/06 15:39:33;;;;;;;4.00;2.10;;;29.20;28.90;;;;;;20834;6837;118347;-85
2022/08/06 15:41:59;;;;;;;3.47;2.10;;;28.80;29.20;;;;;;20799;6837;117168;-87
2022/08/06 15:44:25;;;;;;;2.03;1.93;;;28.60;29.60;;;;;;20565;6837;278398;-88
2022/08/06 15:46:51;;;;;;;2.40;2.20;;;28.60;29.60;;;;;;20769;6837;117278;-88
2022/08/06 15:49:16;;;;;;;2.73;2.50;;;28.50;29.70;;;;;;20550;6837;308485;-87
2022/08/06 15:51:42;;;;;;;2.03;1.93;;;28.70;29.70;;;;;;20781;6837;117332;-89
2022/08/06 15:54:08;;;;;;;2.53;1.80;;;28.80;29.70;;;;;;20564;6837;310781;-87
2022/08/06 15:56:34;;;;;;;2.03;1.75;;;28.80;29.70;;;;;;20573;6837;279958;-88
2022/08/06 15:58:59;;;;;;;3.57;1.80;;;29.00;29.50;;;;;;20774;6837;117496;-88
2022/08/06 16:01:25;;;;;;;2.83;1.90;;;28.90;29.40;;;;;;20555;6837;278020;-87
2022/08/06 16:03:50;;;;;;;2.33;2.10;;;28.90;29.70;;;;;;20782;6837;118068;-87
2022/08/06 16:06:17;;;;;;;1.80;1.70;;;28.60;29.60;;;;;;20789;6837;117084;-87
2022/08/06 16:08:43;;;;;;;2.20;1.67;;;28.40;29.80;;;;;;20791;6837;116886;-87
2022/08/06 16:11:09;;;;;;;1.70;1.60;;;28.40;29.80;;;;;;20794;6837;117240;-89
2022/08/06 16:13:34;;;;;;;3.33;1.67;;;28.20;30.00;;;;;;20561;6837;278014;-89
2022/08/06 16:16:00;;;;;;;3.03;1.90;;;28.40;30.00;;;;;;20567;6837;335732;-88
2022/08/06 16:18:29;;;;;;;1.90;1.80;;;28.70;29.60;;;;;;20596;6837;281208;-89
2022/08/06 16:20:51;;;;;;;2.37;1.60;;;29.00;29.40;;;;;;20785;6837;117229;-88
2022/08/06 16:23:16;;;;;;;2.03;1.93;;;28.80;29.40;;;;;;20576;6837;310303;-87
2022/08/06 16:25:42;;;;;;;3.17;1.90;;;28.80;29.10;;;;;;20810;6837;117299;-88
2022/08/06 16:28:08;;;;;;;2.15;1.80;;;28.60;29.30;;;;;;20609;6837;278517;-90
2022/08/06 16:30:33;;;;;;;2.00;1.80;;;28.60;29.50;;;;;;20611;6837;306647;-88
2022/08/06 16:32:59;;;;;;;1.87;1.77;;;28.80;29.70;;;;;;20842;6836;118136;-88
2022/08/06 16:35:24;;;;;;;2.10;2.00;;;28.60;29.20;;;;;;20814;6836;117505;-89
2022/08/06 16:37:50;;;;;;;3.00;1.90;;;28.20;29.50;;;;;;20785;6836;117555;-89
2022/08/06 16:40:15;;;;;;;2.78;1.98;;;27.90;29.70;;;;;;20568;6834;338672;-89
2022/08/06 16:42:41;;;;;;;2.53;1.80;;;28.00;30.00;;;;;;20788;6836;117618;-88
2022/08/06 16:45:07;;;;;;;1.77;1.67;;;28.00;29.90;;;;;;20783;6836;118250;-88
2022/08/06 16:47:32;;;;;;;2.20;1.60;;;27.80;30.00;;;;;;20756;6836;118404;-87
2022/08/06 16:49:58;;;;;;;2.30;1.90;;;27.60;30.30;;;;;;20579;6836;280369;-88
2022/08/06 16:52:23;;;;;;;1.85;1.75;;;27.80;30.10;;;;;;20781;6836;117851;-89
2022/08/06 16:54:49;;;;;;;2.70;2.50;;;27.70;30.00;;;;;;20573;6836;307549;-88
2022/08/06 16:57:15;;;;;;;2.20;2.00;;;27.90;30.00;;;;;;20558;6836;307180;-89
2022/08/06 16:59:41;;;;;;;4.47;3.00;;;28.10;30.00;;;;;;20775;6836;116639;-88
2022/08/06 17:04:51;;;;;;;2.03;1.93;;;27.70;30.00;;;;;;20565;6836;306635;-90
2022/08/06 17:07:17;;;;;;;2.60;2.40;;;27.80;30.00;;;;;;20587;6841;280117;-90
2022/08/06 17:09:43;;;;;;;2.43;2.23;;;28.10;30.00;;;;;;20803;6827;116446;-90
2022/08/06 17:12:08;;;;;;;3.83;3.53;;;27.90;30.00;;;;;;20840;6815;117162;-89
2022/08/06 17:14:34;;;;;;;4.50;2.70;;;27.70;30.10;;;;;;20631;6815;278080;-90
2022/08/06 17:17:01;;;;;;;2.93;2.70;;;27.70;30.00;;;;;;20610;6819;306364;-90
2022/08/06 17:19:25;;;;;;;2.63;1.90;;;27.90;29.90;;;;;;20526;6819;310044;-89
2022/08/06 17:21:51;;;;;;;2.00;1.90;;;28.10;29.60;;;;;;20774;6840;117385;-90
2022/08/06 17:24:16;;;;;;;2.47;2.00;;;27.80;29.70;;;;;;20606;6828;281241;-89
2022/08/06 17:26:42;;;;;;;2.07;1.90;;;27.80;29.90;;;;;;20814;6828;116670;-89
2022/08/06 17:29:07;;;;;;;1.95;1.85;;;27.60;30.00;;;;;;20817;6828;117442;-90
2022/08/06 17:31:33;;;;;;;1.60;1.50;;;27.20;30.40;;;;;;20798;6828;120072;-89
2022/08/06 17:33:59;;;;;;;2.47;1.70;;;27.00;30.80;;;;;;20605;6828;313225;-90
2022/08/06 17:36:27;;;;;;;2.90;1.75;;;27.10;31.10;;;;;;20635;6814;278503;-90
2022/08/06 17:38:53;;;;;;;3.13;2.00;;;27.40;30.90;;;;;;20870;6814;117269;-91
2022/08/06 17:41:18;;;;;;;1.60;1.50;;;27.40;30.70;;;;;;20844;6814;117519;-89
2022/08/06 17:43:45;;;;;;;4.37;2.03;;;27.30;31.20;;;;;;20719;6814;308569;-88
2022/08/06 17:46:10;;;;;;;2.20;2.00;;;27.30;30.80;;;;;;20892;6814;117536;-90
2022/08/06 17:48:36;;;;;;;2.45;1.80;;;27.20;30.60;;;;;;20884;6814;117341;-89
2022/08/06 17:51:04;;;;;;;2.40;2.20;;;27.10;30.90;;;;;;20872;6812;116253;-89
2022/08/06 17:53:29;;;;;;;1.80;1.70;;;27.20;31.00;;;;;;20622;6813;277516;-89
2022/08/06 17:55:54;;;;;;;1.90;1.80;;;27.10;30.90;;;;;;20653;6813;337637;-90
2022/08/06 17:58:23;;;;;;;3.77;2.00;;;27.60;30.90;;;;;;20888;6813;116890;-89
2022/08/06 18:00:45;;;;;;;2.17;2.08;;;27.50;30.80;;;;;;20868;6813;118912;-90
2022/08/06 18:03:10;;;;;;;2.13;2.03;;;27.30;30.90;;;;;;20883;6813;117102;-89
2022/08/06 18:05:36;;;;;;;3.33;1.97;;;27.00;31.30;;;;;;20862;6813;118683;-90
2022/08/06 18:08:02;;;;;;;1.87;1.73;;;26.90;31.70;;;;;;20891;6813;116436;-91
2022/08/06 18:10:28;;;;;;;7.13;1.83;;;26.80;31.80;;;;;;20879;6813;116442;-89
2022/08/06 18:12:53;;;;;;;1.80;1.70;;;26.70;31.60;;;;;;20671;6813;277465;-89
2022/08/06 18:15:18;;;;;;;4.70;2.00;;;27.00;31.50;;;;;;20643;6813;312180;-90
2022/08/06 18:17:45;;;;;;;1.87;1.70;;;27.60;30.60;;;;;;20659;6813;319133;-89
2022/08/06 18:20:11;;;;;;;2.00;1.90;;;27.50;30.60;;;;;;20876;6813;121018;-89
2022/08/06 18:22:37;;;;;;;2.17;1.90;;;27.50;30.50;;;;;;20665;6813;305947;-90
2022/08/06 18:25:03;;;;;;;5.00;1.60;;;27.50;30.70;;;;;;20674;6813;338152;-88
2022/08/06 18:27:28;;;;;;;1.87;1.70;;;27.70;30.40;;;;;;20855;6813;118136;-90
2022/08/06 18:29:54;;;;;;;2.23;2.00;;;27.50;30.50;;;;;;20670;6814;276584;-89
2022/08/06 18:32:20;;;;;;;2.10;1.90;;;27.50;30.70;;;;;;20663;6814;307704;-89
2022/08/06 18:34:51;;;;;;;1.73;1.73;;;27.70;30.40;;;;;;20848;6814;118165;-89
2022/08/06 18:37:17;;;;;;;2.43;2.23;;;27.50;30.50;;;;;;20605;6814;290201;-89
2022/08/06 18:39:55;;;;;;;2.00;1.80;;;27.50;30.70;;;;;;20593;6814;307493;-90
2022/08/06 18:42:28;;;;;;;2.03;1.80;;;27.70;30.00;;;;;;20825;6814;117831;-91
2022/08/06 18:44:57;;;;;;;2.20;2.00;;;27.40;30.10;;;;;;20639;6814;277860;-90
2022/08/06 18:47:31;;;;;;;1.73;1.60;;;27.40;30.20;;;;;;20794;6814;116646;-89
2022/08/06 18:50:00;;;;;;;1.73;1.63;;;27.20;30.40;;;;;;20780;6814;116311;-89
2022/08/06 18:52:33;;;;;;;1.90;1.80;;;26.90;30.80;;;;;;20834;6814;120106;-89
2022/08/06 18:54:58;;;;;;;2.83;1.70;;;26.60;31.20;;;;;;20889;6814;116288;-89
2022/08/06 18:57:27;;;;;;;1.60;1.50;;;26.40;31.50;;;;;;20820;6814;117641;-90
2022/08/06 18:59:56;;;;;;;1.85;1.70;;;26.30;31.80;;;;;;20598;6814;277833;-91
2022/08/06 19:02:21;;;;;;;2.93;1.90;;;26.50;32.00;;;;;;20631;6812;307534;-89
2022/08/06 19:04:50;;;;;;;2.90;1.80;;;26.90;31.40;;;;;;20609;6813;306585;-90
2022/08/06 19:07:18;;;;;;;2.37;2.00;;;27.20;30.90;;;;;;20588;6813;309683;-90
2022/08/06 19:09:41;;;;;;;2.00;1.90;;;27.40;30.50;;;;;;20811;6813;117169;-90
2022/08/06 19:12:10;;;;;;;1.95;1.80;;;27.20;30.80;;;;;;20647;6813;280329;-90
2022/08/06 19:14:36;;;;;;;2.33;1.87;;;27.20;30.70;;;;;;20614;6813;308007;-90
2022/08/06 19:17:04;;;;;;;2.60;1.80;;;27.30;30.50;;;;;;20633;6813;307138;-90
2022/08/06 19:19:30;;;;;;;1.93;1.83;;;27.40;30.10;;;;;;20582;6813;277428;-90
2022/08/06 19:21:55;;;;;;;1.87;1.77;;;27.50;29.90;;;;;;20608;6813;305481;-90
2022/08/06 19:24:21;;;;;;;2.60;1.58;;;27.60;29.90;;;;;;20861;6813;117282;-90
2022/08/06 19:26:46;;;;;;;1.60;1.50;;;27.30;30.00;;;;;;20885;6813;119686;-89
2022/08/06 19:29:18;;;;;;;1.70;1.60;;;26.90;30.30;;;;;;20842;6813;117421;-91
2022/08/06 19:31:41;;;;;;;1.90;1.80;;;26.50;30.70;;;;;;20857;6813;116738;-88
2022/08/06 19:34:07;;;;;;;5.78;1.70;;;26.20;31.10;;;;;;20876;6813;116220;-90
2022/08/06 19:36:32;;;;;;;1.92;1.65;;;26.00;31.40;;;;;;20893;6813;117077;-90
2022/08/06 19:38:58;;;;;;;3.70;1.40;;;25.80;31.50;;;;;;20888;6813;117014;-90
2022/08/06 19:41:23;;;;;;;1.77;1.67;;;25.60;31.60;;;;;;20851;6814;120298;-88
2022/08/06 19:43:49;;;;;;;1.70;1.47;;;25.40;31.60;;;;;;20644;6814;306945;-89
2022/08/06 19:46:15;;;;;;;1.90;1.80;;;25.60;30.80;;;;;;20875;6814;116244;-90
2022/08/06 19:48:50;;;;;;;4.47;1.40;;;25.60;31.10;;;;;;20853;6814;117103;-90
2022/08/06 19:51:18;;;;;;;2.53;1.60;;;25.40;31.40;;;;;;20534;6814;307012;-91
2022/08/06 19:53:43;;;;;;;2.70;1.58;;;25.60;31.00;;;;;;20835;6814;118970;-90
2022/08/06 19:56:10;;;;;;;1.60;1.50;;;25.50;31.20;;;;;;20881;6814;118210;-88
2022/08/06 19:58:36;;;;;;;1.50;1.40;;;25.30;31.70;;;;;;20907;6814;116195;-88
2022/08/06 20:09:28;;;;;;;;;;;;;;;;;;;;;
2022/08/06 20:25:44;;;;;;;;;;;;;;;;;;;;;
2022/08/06 20:51:25;;;;;;;1.80;1.37;;;24.10;33.40;;;;;;12763;10689;453194;-84
2022/08/06 21:01:49;;;;;;;1.40;1.30;;;24.50;30.40;;;;;;13309;10071;110137;-86
2022/08/06 21:17:47;;;;;;;;;;;;;;;;;;;;;
2022/08/06 22:17:45;;;;;;;2.90;2.70;;;21.40;39.10;;;;;;21585;6558;88599;31
2022/08/06 22:20:10;;;;;;;3.43;2.80;;;21.30;39.80;;;;;;20995;6777;115698;31
2022/08/06 22:22:36;;;;;;;3.90;3.10;;;21.40;40.80;;;;;;20854;6777;116778;31
2022/08/06 22:25:02;;;;;;;3.00;2.80;;;21.40;41.30;;;;;;20769;6843;117450;31
2022/08/06 22:27:27;;;;;;;2.63;2.53;;;21.40;41.60;;;;;;20763;6843;127774;31
2022/08/06 22:32:38;;;;;;;2.30;2.10;;;21.70;41.90;;;;;;20550;6848;279811;31
2022/08/06 22:35:07;;;;;;;2.37;1.80;;;22.30;38.70;;;;;;20486;6848;309863;31
2022/08/06 22:37:36;;;;;;;1.77;1.50;;;22.60;36.00;;;;;;20434;6875;288901;31
2022/08/06 22:39:58;;;;;;;1.63;1.53;;;22.80;34.70;;;;;;20440;6875;305567;31
2022/08/06 22:42:24;;;;;;;2.53;1.30;;;23.00;34.20;;;;;;20460;6875;309696;31
2022/08/06 22:44:49;;;;;;;1.87;1.37;;;23.00;33.70;;;;;;20644;6880;116966;31
2022/08/06 22:47:15;;;;;;;1.60;1.50;;;22.80;34.20;;;;;;20415;6875;282853;31
2022/08/06 22:49:41;;;;;;;1.70;1.60;;;22.80;34.20;;;;;;20438;6875;336299;31
2022/08/06 22:52:06;;;;;;;1.50;1.40;;;23.00;34.80;;;;;;20497;6856;309194;31
2022/08/06 22:54:32;;;;;;;1.83;1.60;;;23.10;35.20;;;;;;20494;6856;313245;31
2022/08/06 22:56:57;;;;;;;2.00;1.80;;;23.20;33.50;;;;;;20489;6856;310133;31
2022/08/06 22:59:23;;;;;;;4.07;1.70;;;23.20;34.40;;;;;;20690;6856;116620;31
2022/08/06 23:01:49;;;;;;;1.85;1.75;;;22.80;34.80;;;;;;20497;6856;299940;31
2022/08/06 23:04:14;;;;;;;1.70;1.60;;;22.70;36.80;;;;;;20702;6856;117408;31
2022/08/06 23:06:40;;;;;;;1.67;1.57;;;22.40;36.40;;;;;;20702;6856;116924;31
2022/08/06 23:09:05;;;;;;;2.37;2.08;;;22.00;36.90;;;;;;20351;6902;312318;31
2022/08/06 23:11:31;;;;;;;3.13;2.13;;;22.10;37.60;;;;;;20345;6902;317836;31
2022/08/06 23:13:57;;;;;;;2.50;2.30;;;22.30;37.60;;;;;;20364;6902;309524;31
2022/08/06 23:16:22;;;;;;;3.47;2.70;;;22.50;37.90;;;;;;20577;6900;119372;31
2022/08/06 23:18:48;;;;;;;2.77;2.57;;;22.20;38.30;;;;;;20578;6900;116893;31
2022/08/06 23:21:34;;;;;;;2.33;2.23;;;21.80;39.10;;;;;;20570;6902;119659;31
2022/08/06 23:24:01;;;;;;;3.23;2.10;;;21.50;39.70;;;;;;20578;6902;116867;31
2022/08/06 23:26:24;;;;;;;3.00;2.00;;;21.20;39.90;;;;;;20345;6902;295953;31
2022/08/06 23:28:50;;;;;;;1.70;1.60;;;21.40;40.00;;;;;;20569;6901;117070;31
2022/08/06 23:31:17;;;;;;;1.92;1.83;;;21.40;39.20;;;;;;20335;6902;309993;31
2022/08/06 23:33:41;;;;;;;2.00;1.90;;;21.60;39.30;;;;;;20371;6902;335722;31